createdAt,value
2022-12-24T00:04:48.075Z,67.10
2022-12-24T00:09:51.987Z,66.90
2022-12-24T00:14:55.925Z,66.60
2022-12-24T00:20:00.172Z,66.30
2022-12-24T00:25:04.613Z,66.10
2022-12-24T00:30:09.486Z,66.40
2022-12-24T00:35:13.393Z,65.90
2022-12-24T00:40:18.720Z,66.00
2022-12-24T00:45:22.676Z,65.50
2022-12-24T00:50:26.819Z,65.40
2022-12-24T00:55:31.069Z,65.30
2022-12-24T01:00:35.189Z,65.20
2022-12-24T01:05:39.222Z,65.10
2022-12-24T01:10:43.255Z,64.90
2022-12-24T01:15:47.308Z,64.80
2022-12-24T01:20:59.806Z,64.60
2022-12-24T01:26:06.004Z,64.60
2022-12-24T01:31:16.036Z,64.60
2022-12-24T01:36:20.109Z,64.50
2022-12-24T01:41:43.374Z,64.50
2022-12-24T01:46:48.634Z,64.40
2022-12-24T01:51:54.819Z,63.90
2022-12-24T01:57:10.924Z,62.70
2022-12-24T02:02:15.905Z,61.60
2022-12-24T02:07:20.209Z,61.30
2022-12-24T02:12:25.545Z,60.80
2022-12-24T02:17:52.364Z,60.40
2022-12-24T02:23:09.906Z,60.60
2022-12-24T02:28:43.070Z,60.40
2022-12-24T02:34:05.210Z,60.80
2022-12-24T02:39:13.690Z,60.80
2022-12-24T02:44:19.418Z,60.70
2022-12-24T02:49:23.458Z,61.00
2022-12-24T02:54:27.857Z,61.20
2022-12-24T03:00:06.595Z,62.00
2022-12-24T03:05:19.561Z,62.60
2022-12-24T03:10:41.680Z,63.20
2022-12-24T03:15:47.261Z,63.20
2022-12-24T03:20:58.460Z,63.80
2022-12-24T03:26:07.620Z,63.80
2022-12-24T03:31:12.418Z,64.30
2022-12-24T03:36:16.892Z,64.60
2022-12-24T03:41:20.925Z,64.90
2022-12-24T03:46:24.905Z,64.80
2022-12-24T03:51:29.403Z,64.80
2022-12-24T03:56:33.230Z,64.50
2022-12-24T04:01:37.273Z,64.80
2022-12-24T04:06:42.132Z,64.40
2022-12-24T04:11:46.453Z,64.30
2022-12-24T04:16:50.667Z,64.10
2022-12-24T04:21:54.632Z,64.40
2022-12-24T04:26:58.663Z,64.50
2022-12-24T04:32:02.850Z,63.80
2022-12-24T04:37:06.763Z,63.70
2022-12-24T04:42:11.365Z,63.70
2022-12-24T04:47:15.511Z,63.60
2022-12-24T04:52:19.748Z,63.60
2022-12-24T04:57:23.765Z,63.50
2022-12-24T05:02:28.044Z,63.60
2022-12-24T05:07:32.147Z,63.50
2022-12-24T05:12:36.283Z,63.50
2022-12-24T05:17:40.312Z,63.50
2022-12-24T05:23:02.876Z,63.50
2022-12-24T05:28:06.701Z,63.40
2022-12-24T05:33:11.550Z,63.50
2022-12-24T05:38:15.507Z,63.50
2022-12-24T05:43:19.521Z,63.40
2022-12-24T05:48:23.640Z,63.50
2022-12-24T05:53:27.501Z,63.30
2022-12-24T05:58:31.707Z,63.40
2022-12-24T06:03:36.291Z,63.50
2022-12-24T06:08:41.735Z,63.90
2022-12-24T06:13:46.072Z,63.60
2022-12-24T06:18:50.477Z,63.60
2022-12-24T06:23:54.445Z,63.60
2022-12-24T06:28:58.574Z,63.50
2022-12-24T06:34:02.598Z,63.50
2022-12-24T06:39:06.530Z,63.40
2022-12-24T06:44:10.463Z,63.40
2022-12-24T06:49:14.486Z,63.50
2022-12-24T06:54:18.599Z,63.60
2022-12-24T06:59:22.458Z,63.70
2022-12-24T07:04:26.414Z,63.30
2022-12-24T07:09:31.953Z,62.40
2022-12-24T07:14:35.831Z,61.40
2022-12-24T07:19:40.036Z,60.90
2022-12-24T07:24:44.051Z,60.30
2022-12-24T07:29:48.796Z,60.00
2022-12-24T07:34:52.647Z,59.80
2022-12-24T07:39:56.778Z,59.50
2022-12-24T07:45:01.058Z,59.50
2022-12-24T07:50:06.458Z,59.90
2022-12-24T07:55:10.700Z,59.60
2022-12-24T08:00:15.143Z,59.30
2022-12-24T08:05:19.078Z,59.40
2022-12-24T08:10:23.935Z,59.50
2022-12-24T08:15:28.164Z,59.80
2022-12-24T08:20:32.536Z,59.40
2022-12-24T08:25:37.528Z,59.40
2022-12-24T08:30:41.622Z,59.50
2022-12-24T08:35:54.035Z,59.70
2022-12-24T08:40:58.445Z,60.00
2022-12-24T08:46:06.337Z,60.10
2022-12-24T08:51:12.069Z,60.70
2022-12-24T08:56:16.168Z,60.50
2022-12-24T09:01:22.604Z,60.70
2022-12-24T09:06:30.567Z,60.70
2022-12-24T09:11:36.302Z,61.00
2022-12-24T09:16:40.582Z,61.00
2022-12-24T09:21:44.943Z,61.50
2022-12-24T09:26:55.640Z,62.50
2022-12-24T09:32:02.053Z,63.50
2022-12-24T09:37:06.454Z,62.80
2022-12-24T09:42:38.720Z,62.70
2022-12-24T09:47:49.130Z,62.80
2022-12-24T09:52:54.625Z,63.00
2022-12-24T09:58:01.460Z,63.60
2022-12-24T10:03:18.842Z,62.80
2022-12-24T10:08:39.708Z,63.80
2022-12-24T10:14:13.356Z,63.90
2022-12-24T10:19:23.301Z,64.00
2022-12-24T10:24:49.860Z,63.80
2022-12-24T10:30:04.347Z,63.80
2022-12-24T10:35:18.472Z,63.80
2022-12-24T10:40:41.641Z,63.00
2022-12-24T10:45:49.378Z,62.70
2022-12-24T10:51:03.422Z,63.30
2022-12-24T10:56:10.747Z,63.30
2022-12-24T11:01:14.926Z,62.70
2022-12-24T11:06:21.536Z,62.80
2022-12-24T11:11:25.896Z,64.60
2022-12-24T11:16:33.943Z,63.60
2022-12-24T11:21:41.939Z,63.40
2022-12-24T11:26:45.989Z,63.10
2022-12-24T11:31:53.082Z,62.90
2022-12-24T11:37:14.582Z,63.20
2022-12-24T11:42:37.359Z,62.10
2022-12-24T11:47:42.435Z,62.70
2022-12-24T11:52:51.671Z,62.40
2022-12-24T11:58:21.575Z,62.30
2022-12-24T12:03:33.928Z,62.50
2022-12-24T12:08:39.580Z,62.10
2022-12-24T12:13:45.802Z,61.80
2022-12-24T12:19:03.452Z,61.90
2022-12-24T12:24:17.053Z,61.70
2022-12-24T12:29:34.706Z,62.10
2022-12-24T12:34:38.735Z,61.60
2022-12-24T12:39:43.276Z,61.80
2022-12-24T12:45:01.736Z,61.80
2022-12-24T12:50:19.195Z,62.20
2022-12-24T12:55:28.011Z,62.00
2022-12-24T13:00:36.547Z,62.10
2022-12-24T13:05:46.254Z,61.50
2022-12-24T13:11:11.948Z,61.70
2022-12-24T13:16:37.638Z,61.90
2022-12-24T13:21:46.408Z,61.80
2022-12-24T13:27:16.640Z,61.70
2022-12-24T13:32:20.508Z,61.90
2022-12-24T13:37:35.321Z,61.00
2022-12-24T13:43:05.072Z,61.80
2022-12-24T13:48:09.008Z,61.70
2022-12-24T13:53:33.334Z,61.20
2022-12-24T13:58:41.859Z,62.40
2022-12-24T14:03:52.610Z,61.90
2022-12-24T14:09:05.641Z,61.70
2022-12-24T14:14:13.140Z,61.50
2022-12-24T14:19:37.266Z,61.70
2022-12-24T14:24:50.533Z,61.30
2022-12-24T14:30:21.260Z,61.70
2022-12-24T14:35:35.492Z,61.40
2022-12-24T14:41:21.654Z,61.30
2022-12-24T14:46:29.573Z,61.10
2022-12-24T14:51:42.247Z,61.10
2022-12-24T14:56:46.171Z,61.00
2022-12-24T15:01:50.949Z,61.40
2022-12-24T15:06:58.131Z,61.50
2022-12-24T15:12:05.130Z,60.70
2022-12-24T15:17:11.023Z,61.00
2022-12-24T15:22:23.224Z,60.80
2022-12-24T15:27:32.996Z,60.80
2022-12-24T15:32:37.009Z,60.60
2022-12-24T15:37:42.814Z,61.10
2022-12-24T15:42:46.924Z,61.00
2022-12-24T15:48:07.454Z,61.00
2022-12-24T15:53:22.585Z,60.70
2022-12-24T15:58:30.898Z,60.00
2022-12-24T16:03:38.269Z,60.00
2022-12-24T16:08:43.622Z,59.60
2022-12-24T16:14:09.139Z,59.00
2022-12-24T16:19:34.209Z,58.80
2022-12-24T16:24:41.771Z,58.50
2022-12-24T16:29:47.337Z,58.40
2022-12-24T16:34:51.373Z,58.20
2022-12-24T16:39:55.721Z,58.60
2022-12-24T16:44:59.752Z,58.60
2022-12-24T16:50:07.104Z,57.90
2022-12-24T16:55:14.880Z,57.80
2022-12-24T17:00:22.702Z,57.60
2022-12-24T17:05:26.754Z,57.50
2022-12-24T17:10:30.860Z,57.50
2022-12-24T17:15:35.403Z,57.40
2022-12-24T17:20:39.230Z,57.30
2022-12-24T17:25:43.153Z,57.20
2022-12-24T17:30:47.317Z,57.10
2022-12-24T17:35:52.610Z,57.00
2022-12-24T17:41:08.652Z,57.10
2022-12-24T17:46:24.358Z,57.00
2022-12-24T17:51:29.212Z,56.90
2022-12-24T17:56:33.251Z,56.80
2022-12-24T18:01:37.487Z,56.70
2022-12-24T18:06:45.733Z,56.70
2022-12-24T18:11:52.921Z,56.60
2022-12-24T18:16:57.053Z,56.60
2022-12-24T18:22:00.781Z,56.50
2022-12-24T18:27:05.023Z,56.50
2022-12-24T18:32:09.246Z,56.50
2022-12-24T18:37:13.139Z,56.40
2022-12-24T18:42:17.151Z,56.50
2022-12-24T18:47:21.349Z,56.60
2022-12-24T18:52:27.982Z,56.80
2022-12-24T18:57:33.200Z,57.00
2022-12-24T19:02:37.243Z,57.20
2022-12-24T19:07:41.881Z,57.40
2022-12-24T19:12:45.812Z,57.60
2022-12-24T19:17:54.759Z,57.70
2022-12-24T19:22:58.693Z,57.80
2022-12-24T19:28:09.875Z,57.90
2022-12-24T19:33:13.919Z,57.90
2022-12-24T19:38:18.041Z,58.50
2022-12-24T19:43:21.978Z,58.30
2022-12-24T19:48:26.404Z,58.40
2022-12-24T19:53:30.554Z,58.40
2022-12-24T19:58:35.727Z,58.50
2022-12-24T20:03:39.839Z,58.60
2022-12-24T20:08:44.182Z,58.70
2022-12-24T20:13:48.434Z,58.70
2022-12-24T20:18:54.567Z,58.90
2022-12-24T20:23:58.755Z,58.80
2022-12-24T20:29:09.738Z,59.00
2022-12-24T20:34:13.672Z,59.30
2022-12-24T20:39:17.701Z,59.10
2022-12-24T20:44:21.724Z,59.10
2022-12-24T20:49:25.658Z,59.10
2022-12-24T20:54:29.580Z,59.20
2022-12-24T20:59:33.718Z,59.60
2022-12-24T21:04:37.755Z,59.20
2022-12-24T21:09:42.400Z,59.20
2022-12-24T21:14:46.323Z,59.20
2022-12-24T21:19:50.262Z,59.10
2022-12-24T21:24:55.418Z,59.20
2022-12-24T21:29:59.551Z,59.20
2022-12-24T21:35:04.611Z,59.10
2022-12-24T21:40:10.509Z,58.60
2022-12-24T21:45:14.317Z,58.00
2022-12-24T21:50:37.205Z,58.00
2022-12-24T21:55:41.200Z,57.30
2022-12-24T22:00:45.230Z,57.00
2022-12-24T22:05:49.277Z,56.80
2022-12-24T22:11:28.406Z,56.50
2022-12-24T22:16:32.284Z,56.80
2022-12-24T22:21:36.777Z,56.20
2022-12-24T22:26:40.608Z,56.20
2022-12-24T22:31:46.007Z,56.10
2022-12-24T22:36:49.997Z,56.40
2022-12-24T22:41:54.350Z,56.00
2022-12-24T22:46:58.585Z,55.90
2022-12-24T22:52:02.917Z,55.90
2022-12-24T22:57:06.850Z,56.10
2022-12-24T23:02:12.455Z,55.60
2022-12-24T23:07:16.426Z,55.60
2022-12-24T23:12:40.331Z,55.60
2022-12-24T23:17:44.661Z,55.50
2022-12-24T23:22:48.590Z,55.40
2022-12-24T23:27:52.534Z,55.30
2022-12-24T23:32:56.569Z,55.30
2022-12-24T23:38:00.691Z,55.30
2022-12-24T23:43:04.524Z,55.50
2022-12-24T23:48:08.452Z,55.60
2022-12-24T23:53:13.508Z,55.80
2022-12-24T23:58:17.450Z,56.00
